Time;durP1;ratioP1;P1;durP2;ratioP2;P2;SDS_P1;SDS_P2;PMS_P1;PMS_P2;Temp;Humidity;BMP_temperature;BMP_pressure;BME280_temperature;BME280_humidity;BME280_pressure;Samples;Min_cycle;Max_cycle;Signal;HPM_P1;HPM_P2
2022/06/23 00:40:49;;;;;;;6.28;5.20;;;;;;;;;;4933462;29;20209;-90
2022/06/23 00:43:39;;;;;;;5.55;4.82;;;;;;;;;;4940629;29;20209;-90
2022/06/23 00:55:17;;;;;;;6.63;4.90;;;;;;;;;;4912506;29;20216;-90
2022/06/23 00:58:15;;;;;;;4.97;4.47;;;;;;;;;;4932819;29;20216;-90
2022/06/23 01:03:42;;;;;;;;;;;;;;;;;;;;;
2022/06/23 01:06:26;;;;;;;5.53;4.45;;;;;;;;;;4933972;29;20221;-90
2022/06/23 01:08:56;;;;;;;8.10;5.03;;;;;;;;;;4934242;29;20228;-91
2022/06/23 01:11:30;;;;;;;5.25;4.78;;;;;;;;;;4934848;29;20210;-91
2022/06/23 01:14:11;;;;;;;6.57;4.93;;;;;;;;;;4934547;29;20240;-91
2022/06/23 01:16:48;;;;;;;7.05;4.80;;;;;;;;;;4934423;29;20205;-91
2022/06/23 01:19:38;;;;;;;6.50;5.15;;;;;;;;;;4934211;29;20244;-90
2022/06/23 01:22:21;;;;;;;5.75;4.95;;;;;;;;;;4934779;29;20209;-90
2022/06/23 01:24:54;;;;;;;6.70;4.72;;;;;;;;;;4934373;29;20296;-91
2022/06/23 01:27:29;;;;;;;5.00;4.53;;;;;;;;;;4934332;29;20257;-90
2022/06/23 01:30:10;;;;;;;6.68;4.78;;;;;;;;;;4934689;29;20232;-89
2022/06/23 01:32:41;;;;;;;5.97;4.53;;;;;;;;;;4931959;29;20223;-90
2022/06/23 01:41:09;;;;;;;4.90;4.05;;;;;;;;;;4928002;29;20209;-90
2022/06/23 01:43:51;;;;;;;5.30;4.15;;;;;;;;;;4931889;29;20209;-90
2022/06/23 01:46:38;;;;;;;5.00;3.72;;;;;;;;;;4938407;28;20213;-91
2022/06/23 01:49:14;;;;;;;5.22;3.50;;;;;;;;;;4951077;28;20225;-91
2022/06/23 01:51:52;;;;;;;4.88;3.80;;;;;;;;;;4957639;28;20231;-90
2022/06/23 01:54:31;;;;;;;4.90;3.90;;;;;;;;;;4943613;29;20236;-91
2022/06/23 01:57:05;;;;;;;5.13;3.58;;;;;;;;;;4938017;29;20209;-93
2022/06/23 01:59:47;;;;;;;7.80;3.53;;;;;;;;;;4938828;29;20235;-90
2022/06/23 02:02:45;;;;;;;5.13;3.75;;;;;;;;;;4932965;29;20638;-91
2022/06/23 02:05:41;;;;;;;5.65;3.90;;;;;;;;;;4936508;29;20225;-90
2022/06/23 02:08:32;;;;;;;6.47;4.05;;;;;;;;;;4937639;29;20221;-90
2022/06/23 02:11:07;;;;;;;4.90;3.58;;;;;;;;;;4936516;29;20202;-91
2022/06/23 02:13:44;;;;;;;6.25;3.40;;;;;;;;;;4935755;29;20212;-91
2022/06/23 02:16:16;;;;;;;6.63;4.07;;;;;;;;;;4936521;29;20208;-91
2022/06/23 02:18:52;;;;;;;6.10;4.10;;;;;;;;;;4936249;29;20225;-91
2022/06/23 02:21:27;;;;;;;5.10;3.80;;;;;;;;;;4937753;29;20268;-91
2022/06/23 02:24:02;;;;;;;4.47;3.65;;;;;;;;;;4938062;29;20205;-90
2022/06/23 02:26:55;;;;;;;;;;;;;;;;;;;;;
2022/06/23 02:29:37;;;;;;;9.23;3.72;;;;;;;;;;4934765;29;20221;-91
2022/06/23 02:32:26;;;;;;;4.05;3.63;;;;;;;;;;4930095;29;20209;-90
2022/06/23 02:35:05;;;;;;;5.03;3.70;;;;;;;;;;4937182;29;20217;-90
2022/06/23 02:37:53;;;;;;;4.32;3.65;;;;;;;;;;4935809;29;20220;-90
2022/06/23 02:40:31;;;;;;;5.28;3.50;;;;;;;;;;4930142;29;20210;-91
2022/06/23 02:43:05;;;;;;;4.82;3.55;;;;;;;;;;4936093;29;20213;-91
2022/06/23 02:45:54;;;;;;;4.95;3.85;;;;;;;;;;4937269;29;20228;-90
2022/06/23 02:48:33;;;;;;;5.28;3.58;;;;;;;;;;4936982;29;20597;-91
2022/06/23 02:51:10;;;;;;;4.82;3.65;;;;;;;;;;4935889;29;20216;-90
2022/06/23 02:56:40;;;;;;;3.95;3.55;;;;;;;;;;4936838;29;20201;-90
2022/06/23 02:59:15;;;;;;;7.00;3.55;;;;;;;;;;4936275;29;20221;-90
2022/06/23 03:01:47;;;;;;;4.30;3.60;;;;;;;;;;4937631;29;20209;-90
2022/06/23 03:04:29;;;;;;;5.72;3.70;;;;;;;;;;4937145;29;20216;-89
2022/06/23 03:07:25;;;;;;;5.57;3.67;;;;;;;;;;4931677;29;20260;-91
2022/06/23 03:09:55;;;;;;;4.78;3.63;;;;;;;;;;4935612;29;20288;-91
2022/06/23 03:12:37;;;;;;;5.28;3.72;;;;;;;;;;4937102;29;20253;-91
2022/06/23 03:15:20;;;;;;;5.82;3.20;;;;;;;;;;4932350;29;20213;-90
2022/06/23 03:18:02;;;;;;;5.20;3.10;;;;;;;;;;4936264;29;20256;-91
2022/06/23 03:20:37;;;;;;;4.78;3.60;;;;;;;;;;4935183;29;20215;-90
2022/06/23 03:23:10;;;;;;;5.68;3.70;;;;;;;;;;4934591;29;20209;-90
2022/06/23 03:25:42;;;;;;;6.40;3.60;;;;;;;;;;4936261;29;20232;-88
2022/06/23 03:28:22;;;;;;;5.57;3.90;;;;;;;;;;4935901;29;20221;-91
2022/06/23 03:30:56;;;;;;;5.22;3.63;;;;;;;;;;4932134;29;20205;-90
2022/06/23 03:36:37;;;;;;;4.88;3.78;;;;;;;;;;4894330;29;20209;-90
2022/06/23 03:42:11;;;;;;;4.82;3.53;;;;;;;;;;4915642;29;20198;-90
2022/06/23 03:44:54;;;;;;;5.55;3.60;;;;;;;;;;4930791;29;20213;-90
2022/06/23 03:47:33;;;;;;;5.47;3.78;;;;;;;;;;4935915;29;20233;-90
2022/06/23 03:50:09;;;;;;;5.60;3.58;;;;;;;;;;4931756;29;20273;-87
2022/06/23 03:52:58;;;;;;;4.93;3.35;;;;;;;;;;4936160;29;20220;-89
2022/06/23 04:14:10;;;;;;;7.45;4.00;;;;;;;;;;4933882;29;20216;-89
2022/06/23 04:16:44;;;;;;;6.40;3.60;;;;;;;;;;4933408;29;20201;-89
2022/06/23 04:19:19;;;;;;;10.65;4.65;;;;;;;;;;4930426;29;20245;-88
2022/06/23 04:22:02;;;;;;;7.22;3.90;;;;;;;;;;4929945;29;20663;-89
2022/06/23 04:30:25;;;;;;;9.32;4.05;;;;;;;;;;4991883;23;20236;-87
2022/06/23 04:39:23;;;;;;;7.55;4.20;;;;;;;;;;5215462;23;20236;-90
2022/06/23 04:42:01;;;;;;;9.90;4.47;;;;;;;;;;4951389;29;20204;-89
2022/06/23 04:44:34;;;;;;;8.98;4.50;;;;;;;;;;4949448;29;20216;-89
2022/06/23 04:47:16;;;;;;;7.20;4.00;;;;;;;;;;4953470;29;20213;-89
2022/06/23 04:49:50;;;;;;;6.75;4.00;;;;;;;;;;4954340;28;20307;-91
2022/06/23 04:52:26;;;;;;;4.93;4.13;;;;;;;;;;4953919;29;20228;-90
2022/06/23 04:55:06;;;;;;;6.93;3.92;;;;;;;;;;4951670;29;20219;-90
2022/06/23 04:57:39;;;;;;;7.13;4.18;;;;;;;;;;4950842;28;20219;-89
2022/06/23 05:00:07;;;;;;;6.47;4.03;;;;;;;;;;4946284;29;20709;-85
2022/06/23 05:02:38;;;;;;;6.50;4.20;;;;;;;;;;4944929;29;20205;-87
2022/06/23 05:05:10;;;;;;;6.15;3.97;;;;;;;;;;4947509;29;20255;-89
2022/06/23 05:07:46;;;;;;;9.63;4.57;;;;;;;;;;4953344;28;20228;-90
2022/06/23 05:10:18;;;;;;;10.45;4.25;;;;;;;;;;4944650;29;20217;-87
2022/06/23 05:12:50;;;;;;;7.32;4.40;;;;;;;;;;4951073;29;20208;-87
2022/06/23 05:15:22;;;;;;;6.25;4.55;;;;;;;;;;4945567;29;20213;-87
2022/06/23 05:17:53;;;;;;;7.10;4.53;;;;;;;;;;4943622;28;20293;-86
2022/06/23 05:20:26;;;;;;;7.47;4.43;;;;;;;;;;4947784;29;20196;-87
2022/06/23 05:54:28;;;;;;;8.75;4.20;;;;;;;;;;4713443;30;20225;-89
2022/06/23 05:57:18;;;;;;;5.40;3.88;;;;;;;;;;4787800;29;20215;-88
2022/06/23 06:00:04;;;;;;;4.18;3.40;;;;;;;;;;4826990;29;20220;-90
2022/06/23 06:02:36;;;;;;;5.18;3.28;;;;;;;;;;4824346;29;20280;-90
2022/06/23 06:05:08;;;;;;;5.03;3.72;;;;;;;;;;4828204;29;20209;-90
2022/06/23 06:07:40;;;;;;;4.95;3.55;;;;;;;;;;4891389;29;20242;-91
2022/06/23 06:10:13;;;;;;;4.18;3.60;;;;;;;;;;4892761;29;20213;-90
2022/06/23 06:12:42;;;;;;;3.42;3.13;;;;;;;;;;4930643;29;20200;-86
2022/06/23 06:15:19;;;;;;;7.28;3.45;;;;;;;;;;4957434;29;20228;-90
2022/06/23 06:17:48;;;;;;;5.13;3.50;;;;;;;;;;4954847;28;20208;-90
2022/06/23 06:20:18;;;;;;;3.78;3.28;;;;;;;;;;4957631;29;20211;-90
2022/06/23 06:22:51;;;;;;;5.28;3.35;;;;;;;;;;4957048;28;20209;-89
2022/06/23 06:25:24;;;;;;;4.75;3.15;;;;;;;;;;4956937;29;20205;-89
2022/06/23 06:27:51;;;;;;;5.55;3.35;;;;;;;;;;4982906;23;20319;-86
2022/06/23 06:30:21;;;;;;;3.75;2.80;;;;;;;;;;4977639;28;20206;-87
2022/06/23 06:32:51;;;;;;;5.03;3.25;;;;;;;;;;4975106;28;20211;-88
2022/06/23 06:35:24;;;;;;;5.47;3.10;;;;;;;;;;4977830;28;20650;-87
2022/06/23 06:37:55;;;;;;;4.57;3.40;;;;;;;;;;4976998;28;20247;-87
2022/06/23 06:40:28;;;;;;;5.53;3.42;;;;;;;;;;4969992;28;20215;-87
2022/06/23 06:42:57;;;;;;;5.88;3.25;;;;;;;;;;4972948;28;20214;-85
2022/06/23 06:45:27;;;;;;;3.60;2.90;;;;;;;;;;4977187;28;20207;-87
2022/06/23 06:47:55;;;;;;;5.18;3.03;;;;;;;;;;4976886;28;20694;-86
2022/06/23 06:50:29;;;;;;;5.65;3.20;;;;;;;;;;4978360;28;20211;-87
2022/06/23 06:52:58;;;;;;;4.10;3.30;;;;;;;;;;4977498;28;20236;-87
2022/06/23 06:55:31;;;;;;;5.00;3.20;;;;;;;;;;4977300;28;20214;-86
2022/06/23 06:58:01;;;;;;;4.47;3.00;;;;;;;;;;4977093;28;20273;-88
2022/06/23 07:00:32;;;;;;;4.55;3.20;;;;;;;;;;4975865;28;20588;-88
2022/06/23 07:03:00;;;;;;;6.80;2.95;;;;;;;;;;4978284;28;20299;-87
2022/06/23 07:05:31;;;;;;;4.57;2.70;;;;;;;;;;4980137;28;20200;-86
2022/06/23 07:08:03;;;;;;;4.78;3.42;;;;;;;;;;4978706;28;20239;-89
2022/06/23 07:10:33;;;;;;;5.18;3.20;;;;;;;;;;4976543;28;20677;-88
2022/06/23 07:13:02;;;;;;;5.18;3.30;;;;;;;;;;4976502;28;20208;-88
2022/06/23 07:15:34;;;;;;;4.22;2.72;;;;;;;;;;4976066;28;20208;-89
2022/06/23 07:18:07;;;;;;;4.18;3.13;;;;;;;;;;4977235;28;20255;-88
2022/06/23 07:20:40;;;;;;;3.80;2.97;;;;;;;;;;4976302;28;20204;-89
2022/06/23 07:23:14;;;;;;;4.00;3.20;;;;;;;;;;4969972;28;20204;-88
2022/06/23 07:25:43;;;;;;;4.10;2.75;;;;;;;;;;4975736;28;20242;-87
2022/06/23 07:28:13;;;;;;;3.85;3.03;;;;;;;;;;4974866;28;20235;-87
2022/06/23 07:30:42;;;;;;;4.78;2.78;;;;;;;;;;4975352;28;20235;-88
2022/06/23 07:33:14;;;;;;;4.53;3.17;;;;;;;;;;4975593;28;20263;-88
2022/06/23 07:36:17;;;;;;;4.30;2.95;;;;;;;;;;4973230;28;20352;-88
2022/06/23 07:38:50;;;;;;;3.60;3.30;;;;;;;;;;4969295;28;20286;-88
2022/06/23 07:41:20;;;;;;;6.07;3.40;;;;;;;;;;4975380;28;20279;-89
2022/06/23 07:43:49;;;;;;;4.15;3.30;;;;;;;;;;4975407;28;20294;-88
2022/06/23 07:46:18;;;;;;;3.20;2.80;;;;;;;;;;4974513;28;20212;-88
2022/06/23 07:48:46;;;;;;;5.38;3.13;;;;;;;;;;4974781;28;20220;-89
2022/06/23 07:51:15;;;;;;;5.72;3.30;;;;;;;;;;4975129;28;20291;-89
2022/06/23 07:53:44;;;;;;;3.55;2.95;;;;;;;;;;4974614;28;20199;-88
2022/06/23 07:56:14;;;;;;;3.30;3.00;;;;;;;;;;4974279;28;20287;-90
2022/06/23 07:58:43;;;;;;;3.85;3.13;;;;;;;;;;4975207;28;20234;-88
2022/06/23 08:01:14;;;;;;;5.60;3.10;;;;;;;;;;4976285;28;20204;-88
2022/06/23 08:03:45;;;;;;;4.60;3.35;;;;;;;;;;4975739;28;20218;-87
2022/06/23 08:06:14;;;;;;;3.88;3.15;;;;;;;;;;4974874;28;20263;-89
2022/06/23 09:47:16;;;;;;;4.82;3.00;;;;;;;;;;4805803;29;20230;-90
2022/06/23 13:33:10;;;;;;;43.58;17.08;;;;;;;;;;4933273;29;20213;-92
2022/06/23 13:35:43;;;;;;;14.82;7.20;;;;;;;;;;4931592;29;20209;-92
2022/06/23 13:38:42;;;;;;;11.85;4.18;;;;;;;;;;4935238;29;20221;-92
2022/06/23 13:44:11;;;;;;;10.10;3.97;;;;;;;;;;4935101;29;20213;-92
2022/06/23 13:46:46;;;;;;;7.63;3.55;;;;;;;;;;4930446;29;20206;-91
2022/06/23 13:49:21;;;;;;;7.10;3.53;;;;;;;;;;4932570;29;20660;-91
2022/06/23 13:51:58;;;;;;;9.73;3.50;;;;;;;;;;4933937;29;20204;-93
2022/06/23 13:54:34;;;;;;;7.18;3.13;;;;;;;;;;4935785;29;20208;-91
2022/06/23 13:57:07;;;;;;;8.65;3.20;;;;;;;;;;4939425;29;20241;-92
2022/06/23 13:59:43;;;;;;;5.90;2.65;;;;;;;;;;4939032;29;20236;-92
2022/06/23 14:02:14;;;;;;;4.60;2.83;;;;;;;;;;4939759;29;20245;-91
2022/06/23 14:04:49;;;;;;;5.82;2.90;;;;;;;;;;4939112;29;20216;-91
2022/06/23 14:07:27;;;;;;;5.88;2.70;;;;;;;;;;4939592;29;20232;-93
2022/06/23 20:10:48;;;;;;;17.08;6.22;;;;;;;;;;5061244;23;20242;-91
2022/06/23 20:13:20;;;;;;;18.70;5.90;;;;;;;;;;4953558;29;20215;-89
2022/06/23 20:15:54;;;;;;;17.55;6.28;;;;;;;;;;4956479;29;20311;-91
2022/06/23 20:18:34;;;;;;;15.85;5.97;;;;;;;;;;4954878;29;20207;-90
2022/06/23 20:24:02;;;;;;;17.15;6.18;;;;;;;;;;4929080;29;20244;-90
2022/06/23 20:26:43;;;;;;;16.88;5.97;;;;;;;;;;4933428;29;20220;-90
2022/06/23 20:29:18;;;;;;;13.88;6.03;;;;;;;;;;4968743;23;20312;-91
2022/06/23 20:48:06;;;;;;;13.52;4.95;;;;;;;;;;4834656;29;20311;-92
2022/06/23 21:45:17;;;;;;;4.25;2.83;;;;;;;;;;4934392;29;20232;-91
2022/06/23 21:48:03;;;;;;;6.13;3.00;;;;;;;;;;4934996;29;20251;-91
2022/06/23 21:50:43;;;;;;;5.35;2.88;;;;;;;;;;4934642;29;20228;-91
2022/06/23 21:53:30;;;;;;;4.35;2.80;;;;;;;;;;4936768;29;20264;-92
2022/06/23 22:22:55;;;;;;;2.72;1.90;;;;;;;;;;4913677;29;20205;-92
2022/06/23 22:28:32;;;;;;;3.05;1.67;;;;;;;;;;4937459;29;20227;-92
2022/06/23 22:31:03;;;;;;;3.15;1.80;;;;;;;;;;4938118;29;20217;-92
2022/06/23 22:33:48;;;;;;;3.38;2.00;;;;;;;;;;4937733;29;20228;-92
2022/06/23 22:36:46;;;;;;;3.40;2.13;;;;;;;;;;4932668;29;20216;-91
2022/06/23 22:39:28;;;;;;;2.55;2.10;;;;;;;;;;4937536;29;20229;-93
2022/06/23 22:42:18;;;;;;;3.42;2.35;;;;;;;;;;4932216;29;20251;-92
2022/06/23 22:45:00;;;;;;;2.90;1.90;;;;;;;;;;4937406;29;20730;-93
2022/06/23 22:47:30;;;;;;;2.40;1.67;;;;;;;;;;4937409;29;20272;-92
2022/06/23 22:50:05;;;;;;;2.10;1.50;;;;;;;;;;4936994;29;20226;-91
2022/06/23 22:52:48;;;;;;;3.60;1.33;;;;;;;;;;4931400;29;20223;-92
2022/06/23 22:55:50;;;;;;;;;;;;;;;;;;;;;
2022/06/23 22:58:34;;;;;;;3.95;1.50;;;;;;;;;;4934701;29;20224;-92
2022/06/23 23:01:39;;;;;;;3.38;1.33;;;;;;;;;;4933222;29;20237;-93
2022/06/23 23:04:25;;;;;;;4.30;1.80;;;;;;;;;;4936961;29;20204;-90
2022/06/23 23:06:55;;;;;;;2.28;1.50;;;;;;;;;;4937184;29;20221;-90
2022/06/23 23:09:24;;;;;;;3.22;1.65;;;;;;;;;;4972792;23;20232;-90
2022/06/23 23:18:09;;;;;;;3.63;1.30;;;;;;;;;;4953169;29;20204;-91
2022/06/23 23:34:36;;;;;;;2.42;1.20;;;;;;;;;;4973028;28;20211;-90
2022/06/23 23:37:06;;;;;;;3.22;1.52;;;;;;;;;;4974911;28;20297;-90
2022/06/23 23:51:09;;;;;;;2.58;1.20;;;;;;;;;;4996260;23;20227;-92
2022/06/23 23:56:37;;;;;;;2.17;1.20;;;;;;;;;;4973701;28;20203;-92
